createdAt,value
2023-05-22T00:01:06.849Z,11.80
2023-05-22T00:03:37.342Z,11.80
2023-05-22T00:06:10.195Z,11.90
2023-05-22T00:08:38.518Z,11.90
2023-05-22T00:11:06.814Z,11.90
2023-05-22T00:13:35.381Z,11.94
2023-05-22T00:16:03.488Z,11.90
2023-05-22T00:18:31.339Z,11.88
2023-05-22T00:21:01.042Z,11.70
2023-05-22T00:23:29.990Z,11.70
2023-05-22T00:25:59.990Z,11.70
2023-05-22T00:28:29.105Z,11.72
2023-05-22T00:30:56.999Z,11.80
2023-05-22T00:33:25.118Z,11.80
2023-05-22T00:35:56.445Z,11.80
2023-05-22T00:38:42.525Z,11.80
2023-05-22T00:41:12.118Z,11.80
2023-05-22T00:43:41.610Z,11.80
2023-05-22T00:46:10.067Z,11.72
2023-05-22T00:48:38.363Z,11.70
2023-05-22T00:51:08.073Z,11.60
2023-05-22T00:53:37.270Z,11.50
2023-05-22T00:56:07.455Z,11.50
2023-05-22T00:58:36.202Z,11.50
2023-05-22T01:01:07.837Z,11.40
2023-05-22T01:03:44.921Z,11.40
2023-05-22T01:06:18.606Z,11.40
2023-05-22T01:08:46.538Z,11.40
2023-05-22T01:11:26.631Z,11.40
2023-05-22T01:14:21.577Z,11.40
2023-05-22T01:17:38.385Z,11.30
2023-05-22T01:20:14.505Z,11.30
2023-05-22T01:23:08.901Z,11.28
2023-05-22T01:26:28.232Z,11.20
2023-05-22T01:28:58.887Z,11.20
2023-05-22T01:31:31.588Z,11.20
2023-05-22T01:34:03.567Z,11.10
2023-05-22T01:36:37.745Z,11.10
2023-05-22T01:39:08.228Z,11.10
2023-05-22T01:41:36.545Z,11.00
2023-05-22T01:44:04.691Z,11.10
2023-05-22T01:46:33.170Z,11.10
2023-05-22T01:49:01.104Z,11.20
2023-05-22T01:51:43.733Z,11.20
2023-05-22T01:54:46.403Z,11.20
2023-05-22T01:57:35.496Z,11.20
2023-05-22T02:00:11.040Z,11.20
2023-05-22T02:02:46.796Z,11.20
2023-05-22T02:05:19.128Z,11.20
2023-05-22T02:07:49.493Z,11.12
2023-05-22T02:10:18.961Z,11.10
2023-05-22T02:12:47.526Z,11.08
2023-05-22T02:15:16.391Z,11.06
2023-05-22T02:17:45.746Z,11.08
2023-05-22T02:20:16.115Z,11.00
2023-05-22T02:22:47.131Z,10.90
2023-05-22T02:25:18.197Z,10.88
2023-05-22T02:27:48.115Z,10.80
2023-05-22T02:30:16.316Z,10.80
2023-05-22T02:32:44.404Z,10.90
2023-05-22T02:35:12.575Z,10.86
2023-05-22T02:37:41.102Z,10.80
2023-05-22T02:40:10.469Z,10.74
2023-05-22T02:42:39.599Z,10.80
2023-05-22T02:45:08.756Z,10.70
2023-05-22T02:47:36.741Z,10.60
2023-05-22T02:50:05.211Z,10.56
2023-05-22T02:52:33.104Z,10.52
2023-05-22T02:55:01.449Z,10.50
2023-05-22T02:57:29.858Z,10.46
2023-05-22T02:59:59.687Z,10.40
2023-05-22T03:02:32.628Z,10.40
2023-05-22T03:05:00.906Z,10.40
2023-05-22T03:07:30.731Z,10.40
2023-05-22T03:09:58.723Z,10.40
2023-05-22T03:12:29.326Z,10.40
2023-05-22T03:14:57.447Z,10.40
2023-05-22T03:17:25.627Z,10.48
2023-05-22T03:19:54.177Z,10.50
2023-05-22T03:22:23.198Z,10.50
2023-05-22T03:24:51.358Z,10.40
2023-05-22T03:27:20.390Z,10.40
2023-05-22T03:29:48.273Z,10.40
2023-05-22T03:32:16.177Z,10.40
2023-05-22T03:34:44.073Z,10.40
2023-05-22T03:37:12.034Z,10.40
2023-05-22T03:39:40.119Z,10.40
2023-05-22T03:42:09.768Z,10.40
2023-05-22T03:44:37.635Z,10.40
2023-05-22T03:47:08.141Z,10.40
2023-05-22T03:49:37.194Z,10.40
2023-05-22T03:52:07.513Z,10.40
2023-05-22T03:54:37.189Z,10.42
2023-05-22T03:57:05.593Z,10.48
2023-05-22T03:59:35.187Z,10.50
2023-05-22T04:02:03.439Z,10.50
2023-05-22T04:04:34.225Z,10.58
2023-05-22T04:07:02.732Z,10.60
2023-05-22T04:09:32.423Z,10.70
2023-05-22T04:12:03.875Z,10.70
2023-05-22T04:14:34.121Z,10.80
2023-05-22T04:17:01.941Z,10.80
2023-05-22T04:19:33.595Z,10.82
2023-05-22T04:22:01.650Z,10.90
2023-05-22T04:24:29.811Z,10.92
2023-05-22T04:27:00.375Z,11.00
2023-05-22T04:29:29.965Z,11.10
2023-05-22T04:31:57.923Z,11.10
2023-05-22T04:34:26.376Z,11.20
2023-05-22T04:36:55.144Z,11.20
2023-05-22T04:39:26.360Z,11.28
2023-05-22T04:41:55.240Z,11.30
2023-05-22T04:44:23.880Z,11.32
2023-05-22T04:46:52.163Z,11.30
2023-05-22T04:49:20.794Z,11.40
2023-05-22T04:51:48.752Z,11.40
2023-05-22T04:54:17.676Z,11.40
2023-05-22T04:56:45.527Z,11.50
2023-05-22T04:59:16.435Z,11.50
2023-05-22T05:01:45.611Z,11.60
2023-05-22T05:04:13.765Z,11.60
2023-05-22T05:06:41.856Z,11.60
2023-05-22T05:09:10.691Z,11.70
2023-05-22T05:11:38.581Z,11.70
2023-05-22T05:14:07.860Z,11.80
2023-05-22T05:16:36.142Z,11.88
2023-05-22T05:19:04.128Z,11.90
2023-05-22T05:21:32.315Z,12.00
2023-05-22T05:24:00.631Z,12.02
2023-05-22T05:26:28.677Z,12.10
2023-05-22T05:28:56.944Z,12.20
2023-05-22T05:31:26.270Z,12.20
2023-05-22T05:33:58.210Z,12.30
2023-05-22T05:36:29.099Z,12.40
2023-05-22T05:38:58.597Z,12.48
2023-05-22T05:41:28.792Z,12.50
2023-05-22T05:44:00.672Z,12.58
2023-05-22T05:46:28.795Z,12.60
2023-05-22T05:48:58.534Z,12.70
2023-05-22T05:51:26.676Z,12.80
2023-05-22T05:53:56.225Z,12.80
2023-05-22T05:56:25.178Z,12.84
2023-05-22T05:58:54.273Z,12.90
2023-05-22T06:01:27.141Z,12.90
2023-05-22T06:03:57.044Z,13.08
2023-05-22T06:06:26.391Z,13.20
2023-05-22T06:08:54.688Z,13.30
2023-05-22T06:11:23.349Z,13.40
2023-05-22T06:13:51.553Z,13.50
2023-05-22T06:16:20.421Z,13.60
2023-05-22T06:18:49.937Z,13.70
2023-05-22T06:21:21.405Z,13.80
2023-05-22T06:23:49.905Z,13.80
2023-05-22T06:26:18.502Z,13.90
2023-05-22T06:28:46.400Z,13.90
2023-05-22T06:31:14.569Z,14.00
2023-05-22T06:33:43.601Z,14.00
2023-05-22T06:36:12.215Z,14.10
2023-05-22T06:38:40.636Z,14.10
2023-05-22T06:41:08.585Z,14.20
2023-05-22T06:43:36.675Z,14.30
2023-05-22T06:46:05.728Z,14.46
2023-05-22T06:48:35.883Z,14.60
2023-05-22T06:51:04.472Z,14.70
2023-05-22T06:53:32.539Z,14.80
2023-05-22T06:56:01.581Z,14.90
2023-05-22T06:58:29.586Z,15.00
2023-05-22T07:00:58.308Z,15.10
2023-05-22T07:03:27.462Z,15.24
2023-05-22T07:05:59.739Z,15.40
2023-05-22T07:08:30.443Z,15.50
2023-05-22T07:10:58.821Z,15.60
2023-05-22T07:13:29.002Z,15.70
2023-05-22T07:15:57.305Z,15.70
2023-05-22T07:18:26.309Z,15.80
2023-05-22T07:20:56.173Z,15.90
2023-05-22T07:23:26.200Z,16.00
2023-05-22T07:25:54.573Z,16.00
2023-05-22T07:28:22.699Z,16.10
2023-05-22T07:30:51.352Z,16.20
2023-05-22T07:33:19.711Z,16.30
2023-05-22T07:35:48.969Z,16.36
2023-05-22T07:38:17.145Z,16.44
2023-05-22T07:40:57.212Z,16.58
2023-05-22T07:43:25.701Z,16.60
2023-05-22T07:45:56.022Z,16.70
2023-05-22T07:48:24.544Z,16.70
2023-05-22T07:50:52.498Z,16.78
2023-05-22T07:53:20.973Z,16.80
2023-05-22T07:55:53.691Z,16.90
2023-05-22T07:58:25.798Z,16.90
2023-05-22T08:00:54.051Z,16.90
2023-05-22T08:03:24.281Z,16.90
2023-05-22T08:05:52.965Z,17.00
2023-05-22T08:08:22.995Z,17.00
2023-05-22T08:11:03.112Z,17.04
2023-05-22T08:13:32.674Z,17.10
2023-05-22T08:16:01.690Z,17.20
2023-05-22T08:18:30.304Z,17.30
2023-05-22T08:21:01.064Z,17.40
2023-05-22T08:23:29.959Z,17.46
2023-05-22T08:25:59.130Z,17.50
2023-05-22T08:28:27.116Z,17.60
2023-05-22T08:30:55.348Z,17.70
2023-05-22T08:33:23.406Z,17.80
2023-05-22T08:35:51.589Z,18.00
2023-05-22T08:38:19.564Z,18.10
2023-05-22T08:40:52.300Z,18.20
2023-05-22T08:43:21.682Z,18.34
2023-05-22T08:46:06.105Z,18.50
2023-05-22T08:48:34.043Z,18.60
2023-05-22T08:51:06.279Z,18.60
2023-05-22T08:53:37.006Z,18.70
2023-05-22T08:56:07.212Z,18.80
2023-05-22T08:58:38.338Z,18.90
2023-05-22T09:01:09.483Z,18.94
2023-05-22T09:03:38.672Z,19.00
2023-05-22T09:06:10.412Z,19.10
2023-05-22T09:08:42.854Z,19.10
2023-05-22T09:11:11.617Z,19.10
2023-05-22T09:13:41.630Z,19.12
2023-05-22T09:16:12.744Z,19.20
2023-05-22T09:18:42.705Z,19.20
2023-05-22T09:21:25.825Z,19.28
2023-05-22T09:24:01.581Z,19.30
2023-05-22T09:26:30.582Z,19.38
2023-05-22T09:29:00.518Z,19.40
2023-05-22T09:31:30.313Z,19.50
2023-05-22T09:34:01.596Z,19.54
2023-05-22T09:36:33.695Z,19.64
2023-05-22T09:39:04.121Z,19.80
2023-05-22T09:41:39.781Z,19.98
2023-05-22T09:44:17.512Z,20.20
2023-05-22T09:46:47.290Z,20.40
2023-05-22T09:49:19.288Z,20.60
2023-05-22T09:51:50.969Z,20.60
2023-05-22T09:54:21.782Z,20.72
2023-05-22T09:56:51.401Z,20.90
2023-05-22T09:59:27.329Z,21.00
2023-05-22T10:01:57.997Z,21.14
2023-05-22T10:04:33.410Z,21.38
2023-05-22T10:07:03.984Z,21.60
2023-05-22T10:09:38.442Z,21.62
2023-05-22T10:12:10.193Z,21.82
2023-05-22T10:14:38.495Z,22.00
2023-05-22T10:17:07.117Z,22.12
2023-05-22T10:19:39.740Z,22.30
2023-05-22T10:22:21.086Z,22.50
2023-05-22T10:24:52.850Z,22.50
2023-05-22T10:27:28.336Z,22.62
2023-05-22T10:30:09.447Z,22.80
2023-05-22T10:32:49.098Z,23.00
2023-05-22T10:35:33.433Z,23.20
2023-05-22T10:38:33.609Z,23.40
2023-05-22T10:41:04.981Z,23.70
2023-05-22T10:43:33.095Z,23.88
2023-05-22T10:46:06.858Z,24.00
2023-05-22T10:48:48.152Z,24.20
2023-05-22T10:51:21.831Z,24.20
2023-05-22T10:53:57.984Z,24.22
2023-05-22T10:56:37.303Z,24.32
2023-05-22T10:59:08.348Z,24.50
2023-05-22T11:01:38.351Z,24.58
2023-05-22T11:04:17.745Z,24.38
2023-05-22T11:06:49.069Z,24.12
2023-05-22T11:09:28.288Z,24.00
2023-05-22T11:12:18.551Z,23.80
2023-05-22T11:14:55.508Z,23.70
2023-05-22T11:17:30.260Z,23.52
2023-05-22T11:20:26.049Z,23.60
2023-05-22T11:23:07.243Z,23.50
2023-05-22T11:25:39.357Z,23.54
2023-05-22T11:28:08.093Z,23.80
2023-05-22T11:30:37.334Z,24.08
2023-05-22T11:33:06.727Z,24.10
2023-05-22T11:35:38.026Z,24.10
2023-05-22T11:38:09.968Z,24.10
2023-05-22T11:40:40.916Z,24.10
2023-05-22T11:43:09.250Z,24.00
2023-05-22T11:45:39.446Z,24.08
2023-05-22T11:48:09.503Z,24.16
2023-05-22T11:50:43.597Z,24.20
2023-05-22T11:53:12.719Z,24.22
2023-05-22T11:55:43.502Z,24.40
2023-05-22T11:58:11.765Z,24.58
2023-05-22T12:00:39.954Z,24.80
2023-05-22T12:03:08.951Z,24.60
2023-05-22T12:05:38.063Z,24.48
2023-05-22T12:08:06.065Z,24.40
2023-05-22T12:10:34.074Z,24.30
2023-05-22T12:13:02.178Z,24.20
2023-05-22T12:15:30.955Z,23.96
2023-05-22T12:17:59.241Z,23.80
2023-05-22T12:20:31.585Z,23.62
2023-05-22T12:22:59.932Z,23.60
2023-05-22T12:25:39.050Z,23.60
2023-05-22T12:28:07.610Z,23.78
2023-05-22T12:30:43.193Z,24.00
2023-05-22T12:33:17.926Z,24.20
2023-05-22T12:35:46.250Z,24.40
2023-05-22T12:38:14.486Z,24.50
2023-05-22T12:40:42.984Z,24.50
2023-05-22T12:43:11.448Z,24.70
2023-05-22T12:45:42.525Z,24.80
2023-05-22T12:48:10.420Z,24.84
2023-05-22T12:50:39.141Z,25.10
2023-05-22T12:53:07.371Z,25.20
2023-05-22T12:55:36.812Z,25.18
2023-05-22T12:58:07.814Z,25.06
2023-05-22T13:00:36.100Z,25.00
2023-05-22T13:03:06.640Z,25.00
2023-05-22T13:05:34.964Z,24.90
2023-05-22T13:08:02.921Z,25.02
2023-05-22T13:10:30.882Z,25.22
2023-05-22T13:12:59.414Z,25.60
2023-05-22T13:15:32.611Z,26.00
2023-05-22T13:18:00.639Z,26.22
2023-05-22T13:20:28.689Z,26.50
2023-05-22T13:22:57.395Z,26.70
2023-05-22T13:25:26.170Z,26.90
2023-05-22T13:27:55.141Z,27.00
2023-05-22T13:30:24.483Z,27.10
2023-05-22T13:32:53.386Z,27.08
2023-05-22T13:35:22.561Z,26.90
2023-05-22T13:37:52.361Z,26.70
2023-05-22T13:40:20.887Z,26.54
2023-05-22T13:42:53.474Z,26.30
2023-05-22T13:45:21.756Z,26.00
2023-05-22T13:47:49.857Z,25.90
2023-05-22T13:50:20.696Z,25.74
2023-05-22T13:52:49.277Z,25.68
2023-05-22T13:55:17.178Z,25.70
2023-05-22T13:57:45.227Z,25.70
2023-05-22T14:00:16.355Z,25.78
2023-05-22T14:02:46.558Z,25.74
2023-05-22T14:05:15.672Z,25.70
2023-05-22T14:07:43.783Z,25.80
2023-05-22T14:10:11.902Z,25.82
2023-05-22T14:12:41.350Z,25.80
2023-05-22T14:15:11.186Z,25.70
2023-05-22T14:17:40.650Z,25.50
2023-05-22T14:20:14.452Z,25.30
2023-05-22T14:22:56.409Z,25.10
2023-05-22T14:25:27.483Z,24.90
2023-05-22T14:27:57.668Z,24.70
2023-05-22T14:30:25.697Z,24.60
2023-05-22T14:32:55.185Z,24.50
2023-05-22T14:35:25.393Z,24.40
2023-05-22T14:37:53.711Z,24.20
2023-05-22T14:40:23.760Z,24.20
2023-05-22T14:42:54.449Z,24.10
2023-05-22T14:45:22.725Z,24.10
2023-05-22T14:47:51.217Z,24.08
2023-05-22T14:50:20.886Z,24.08
2023-05-22T14:52:49.771Z,24.02
2023-05-22T14:55:18.294Z,24.10
2023-05-22T14:57:46.387Z,24.10
2023-05-22T15:00:16.526Z,24.10
2023-05-22T15:02:44.953Z,24.10
2023-05-22T15:05:14.039Z,24.20
2023-05-22T15:07:45.582Z,24.20
2023-05-22T15:10:16.264Z,24.20
2023-05-22T15:12:46.834Z,24.20
2023-05-22T15:15:14.820Z,24.30
2023-05-22T15:17:43.586Z,24.30
2023-05-22T15:20:12.908Z,24.40
2023-05-22T15:22:41.662Z,24.30
2023-05-22T15:25:16.219Z,24.30
2023-05-22T15:27:44.985Z,24.30
2023-05-22T15:30:15.620Z,24.20
2023-05-22T15:32:45.534Z,24.10
2023-05-22T15:35:15.519Z,24.10
2023-05-22T15:37:45.591Z,24.10
2023-05-22T15:40:18.373Z,24.10
2023-05-22T15:42:46.480Z,24.10
2023-05-22T15:45:16.559Z,24.10
2023-05-22T15:47:48.354Z,23.94
2023-05-22T15:50:17.215Z,23.80
2023-05-22T15:52:48.124Z,23.78
2023-05-22T15:55:16.119Z,23.80
2023-05-22T15:57:44.029Z,23.80
2023-05-22T16:00:15.233Z,23.70
2023-05-22T16:02:44.521Z,23.60
2023-05-22T16:05:12.656Z,23.60
2023-05-22T16:07:41.034Z,23.60
2023-05-22T16:10:11.990Z,23.60
2023-05-22T16:12:41.476Z,23.60
2023-05-22T16:15:12.328Z,23.60
2023-05-22T16:17:40.944Z,23.60
2023-05-22T16:20:12.141Z,23.60
2023-05-22T16:25:18.623Z,23.60
2023-05-22T16:27:48.255Z,23.60
2023-05-22T16:30:17.785Z,23.60
2023-05-22T16:32:47.103Z,23.60
2023-05-22T16:35:17.921Z,23.60
2023-05-22T16:37:46.074Z,23.50
2023-05-22T16:40:14.569Z,23.50
2023-05-22T16:42:45.491Z,23.40
2023-05-22T16:45:13.353Z,23.24
2023-05-22T16:47:43.036Z,23.20
2023-05-22T16:50:11.222Z,23.20
2023-05-22T16:52:39.447Z,23.18
2023-05-22T16:55:11.432Z,23.20
2023-05-22T16:57:40.645Z,23.20
2023-05-22T17:00:11.052Z,23.10
2023-05-22T17:02:44.191Z,23.10
2023-05-22T17:05:12.117Z,23.10
2023-05-22T17:07:39.935Z,23.10
2023-05-22T17:10:10.966Z,23.10
2023-05-22T17:12:38.858Z,23.00
2023-05-22T17:15:10.635Z,22.98
2023-05-22T17:17:40.710Z,22.90
2023-05-22T17:20:10.373Z,22.90
2023-05-22T17:22:39.993Z,22.80
2023-05-22T17:25:08.781Z,22.70
2023-05-22T17:27:37.053Z,22.66
2023-05-22T17:30:08.634Z,22.50
2023-05-22T17:32:38.102Z,22.40
2023-05-22T17:35:07.126Z,22.30
2023-05-22T17:37:35.695Z,22.20
2023-05-22T17:40:04.925Z,22.16
2023-05-22T17:42:32.774Z,22.10
2023-05-22T17:45:03.778Z,22.00
2023-05-22T17:47:33.504Z,21.90
2023-05-22T17:50:01.733Z,21.80
2023-05-22T17:52:31.220Z,21.80
2023-05-22T17:55:02.142Z,21.70
2023-05-22T17:57:32.099Z,21.60
2023-05-22T18:00:01.410Z,21.60
2023-05-22T18:02:29.661Z,21.50
2023-05-22T18:04:58.049Z,21.48
2023-05-22T18:07:26.082Z,21.40
2023-05-22T18:09:55.720Z,21.30
2023-05-22T18:12:31.057Z,21.28
2023-05-22T18:15:00.521Z,21.20
2023-05-22T18:17:30.261Z,21.10
2023-05-22T18:20:00.107Z,21.08
2023-05-22T18:22:28.759Z,21.00
2023-05-22T18:24:58.812Z,21.00
2023-05-22T18:27:31.399Z,20.98
2023-05-22T18:29:59.567Z,20.90
2023-05-22T18:32:27.468Z,20.90
2023-05-22T18:34:59.060Z,20.80
2023-05-22T18:37:30.960Z,20.80
2023-05-22T18:39:59.497Z,20.70
2023-05-22T18:42:28.262Z,20.70
2023-05-22T18:45:05.726Z,20.60
2023-05-22T18:47:35.044Z,20.60
2023-05-22T18:50:05.292Z,20.50
2023-05-22T18:52:33.286Z,20.40
2023-05-22T18:55:05.182Z,20.34
2023-05-22T18:57:33.788Z,20.30
2023-05-22T19:00:01.735Z,20.20
2023-05-22T19:02:29.809Z,20.20
2023-05-22T19:04:58.510Z,20.10
2023-05-22T19:07:27.051Z,20.04
2023-05-22T19:09:55.410Z,20.00
2023-05-22T19:12:24.727Z,19.90
2023-05-22T19:14:52.716Z,19.70
2023-05-22T19:17:21.411Z,19.50
2023-05-22T19:19:49.469Z,19.36
2023-05-22T19:22:18.397Z,19.20
2023-05-22T19:24:48.221Z,19.10
2023-05-22T19:27:16.198Z,19.10
2023-05-22T19:29:47.834Z,19.00
2023-05-22T19:32:17.015Z,18.90
2023-05-22T19:34:44.900Z,18.90
2023-05-22T19:37:13.014Z,18.90
2023-05-22T19:39:41.219Z,18.86
2023-05-22T19:42:10.843Z,18.80
2023-05-22T19:44:39.751Z,18.80
2023-05-22T19:47:11.107Z,18.80
2023-05-22T19:49:39.069Z,18.80
2023-05-22T19:52:07.233Z,18.80
2023-05-22T19:54:36.234Z,18.80
2023-05-22T19:57:07.362Z,18.80
2023-05-22T19:59:36.791Z,18.90
2023-05-22T20:02:05.777Z,18.90
2023-05-22T20:04:34.442Z,18.94
2023-05-22T20:07:07.380Z,18.90
2023-05-22T20:09:35.590Z,18.86
2023-05-22T20:12:03.562Z,18.80
2023-05-22T20:14:33.254Z,18.70
2023-05-22T20:17:02.419Z,18.60
2023-05-22T20:19:34.920Z,18.50
2023-05-22T20:22:05.398Z,18.50
2023-05-22T20:24:35.970Z,18.40
2023-05-22T20:27:07.155Z,18.40
2023-05-22T20:29:36.966Z,18.30
2023-05-22T20:32:05.612Z,18.30
2023-05-22T20:34:34.275Z,18.30
2023-05-22T20:37:05.283Z,18.22
2023-05-22T20:39:33.616Z,18.20
2023-05-22T20:42:03.118Z,18.20
2023-05-22T20:44:32.266Z,18.20
2023-05-22T20:47:01.349Z,18.10
2023-05-22T20:49:37.384Z,17.98
2023-05-22T20:52:05.847Z,17.90
2023-05-22T20:54:35.012Z,17.80
2023-05-22T20:57:06.517Z,17.70
2023-05-22T20:59:37.864Z,17.60
2023-05-22T21:02:08.084Z,17.60
2023-05-22T21:04:36.037Z,17.50
2023-05-22T21:07:05.042Z,17.60
2023-05-22T21:09:32.979Z,17.60
2023-05-22T21:12:04.661Z,17.60
2023-05-22T21:14:33.104Z,17.62
2023-05-22T21:17:01.239Z,17.62
2023-05-22T21:19:29.643Z,17.60
2023-05-22T21:21:58.559Z,17.60
2023-05-22T21:24:29.043Z,17.60
2023-05-22T21:26:59.873Z,17.60
2023-05-22T21:29:27.762Z,17.50
2023-05-22T21:31:57.506Z,17.50
2023-05-22T21:34:25.930Z,17.50
2023-05-22T21:36:53.810Z,17.46
2023-05-22T21:39:22.065Z,17.50
2023-05-22T21:41:51.205Z,17.50
2023-05-22T21:44:20.421Z,17.50
2023-05-22T21:46:48.439Z,17.60
2023-05-22T21:49:19.384Z,17.60
2023-05-22T21:51:47.443Z,17.52
2023-05-22T21:54:16.104Z,17.52
2023-05-22T21:56:44.653Z,17.50
2023-05-22T21:59:12.573Z,17.50
2023-05-22T22:01:41.581Z,17.50
2023-05-22T22:04:12.054Z,17.50
2023-05-22T22:06:40.505Z,17.50
2023-05-22T22:09:09.916Z,17.50
2023-05-22T22:11:40.676Z,17.50
2023-05-22T22:14:09.180Z,17.50
2023-05-22T22:16:40.934Z,17.50
2023-05-22T22:19:09.779Z,17.50
2023-05-22T22:21:38.511Z,17.50
2023-05-22T22:24:06.872Z,17.50
2023-05-22T22:26:35.586Z,17.50
2023-05-22T22:29:04.832Z,17.30
2023-05-22T22:31:33.672Z,17.20
2023-05-22T22:34:04.067Z,17.20
2023-05-22T22:36:33.643Z,17.14
2023-05-22T22:39:02.501Z,17.14
2023-05-22T22:41:30.555Z,17.10
2023-05-22T22:44:01.506Z,17.10
2023-05-22T22:46:29.625Z,17.18
2023-05-22T22:49:01.897Z,17.20
2023-05-22T22:51:32.703Z,17.20
2023-05-22T22:54:00.803Z,17.20
2023-05-22T22:56:29.503Z,17.08
2023-05-22T22:58:58.318Z,16.92
2023-05-22T23:01:26.539Z,16.84
2023-05-22T23:03:57.657Z,16.80
2023-05-22T23:06:29.860Z,16.80
2023-05-22T23:09:06.300Z,16.80
2023-05-22T23:11:38.623Z,16.80
2023-05-22T23:14:09.802Z,16.80
2023-05-22T23:16:44.293Z,16.80
2023-05-22T23:19:15.405Z,16.80
2023-05-22T23:21:43.362Z,16.80
2023-05-22T23:24:28.370Z,16.70
2023-05-22T23:26:59.383Z,16.70
2023-05-22T23:29:30.021Z,16.70
2023-05-22T23:31:58.071Z,16.70
2023-05-22T23:34:26.247Z,16.70
2023-05-22T23:36:54.358Z,16.70
2023-05-22T23:39:23.769Z,16.70
2023-05-22T23:41:54.192Z,16.70
2023-05-22T23:44:22.250Z,16.66
2023-05-22T23:46:51.403Z,16.64
2023-05-22T23:49:22.178Z,16.60
2023-05-22T23:51:52.414Z,16.50
2023-05-22T23:54:21.983Z,16.40
2023-05-22T23:56:50.886Z,16.40
2023-05-22T23:59:26.556Z,16.32
